Time;durP1;ratioP1;P1;durP2;ratioP2;P2;SDS_P1;SDS_P2;PMS_P1;PMS_P2;Temp;Humidity;BMP_temperature;BMP_pressure;BME280_temperature;BME280_humidity;BME280_pressure;Samples;Min_cycle;Max_cycle;Signal;HPM_P1;HPM_P2
2021/09/18 00:01:18;;;;;;;4.80;3.90;;;;;;;;;;5002563;28;20521;-80
2021/09/18 00:03:44;;;;;;;4.55;3.03;;;;;;;;;;5001357;28;20440;-80
2021/09/18 00:06:10;;;;;;;3.90;3.37;;;;;;;;;;5004098;28;20240;-79
2021/09/18 00:08:36;;;;;;;4.40;4.00;;;;;;;;;;4995147;28;20503;-79
2021/09/18 00:11:02;;;;;;;3.80;3.30;;;;;;;;;;5002193;28;20685;-79
2021/09/18 00:13:30;;;;;;;3.80;3.50;;;;;;;;;;5001602;28;20459;-79
2021/09/18 00:15:56;;;;;;;5.22;3.60;;;;;;;;;;5002348;28;20180;-80
2021/09/18 00:18:22;;;;;;;4.07;3.78;;;;;;;;;;5004342;28;20204;-79
2021/09/18 00:20:48;;;;;;;4.05;3.40;;;;;;;;;;5003114;28;20183;-80
2021/09/18 00:23:14;;;;;;;3.83;3.63;;;;;;;;;;5001784;28;20250;-79
2021/09/18 00:25:40;;;;;;;3.50;3.20;;;;;;;;;;5001722;28;20795;-79
2021/09/18 00:28:06;;;;;;;4.63;3.72;;;;;;;;;;5001314;28;20186;-79
2021/09/18 00:30:32;;;;;;;4.78;3.90;;;;;;;;;;5003848;28;20171;-79
2021/09/18 00:32:58;;;;;;;3.65;3.35;;;;;;;;;;5003689;28;20245;-79
2021/09/18 00:35:24;;;;;;;4.30;3.90;;;;;;;;;;5003451;28;20205;-79
2021/09/18 00:37:50;;;;;;;4.72;3.47;;;;;;;;;;5001309;28;20445;-80
2021/09/18 00:40:16;;;;;;;4.20;3.80;;;;;;;;;;5016227;28;20190;-79
2021/09/18 00:42:42;;;;;;;5.33;4.30;;;;;;;;;;4995525;28;20471;-79
2021/09/18 00:45:08;;;;;;;3.63;3.40;;;;;;;;;;5005331;28;20495;-79
2021/09/18 00:47:34;;;;;;;4.07;3.60;;;;;;;;;;5001304;28;20198;-79
2021/09/18 00:50:00;;;;;;;3.95;3.55;;;;;;;;;;5000938;28;20431;-79
2021/09/18 00:52:26;;;;;;;3.42;3.13;;;;;;;;;;4999405;28;20218;-79
2021/09/18 00:54:52;;;;;;;4.50;4.20;;;;;;;;;;4999437;28;20197;-80
2021/09/18 00:57:19;;;;;;;4.60;4.15;;;;;;;;;;5004648;28;20186;-79
2021/09/18 00:59:45;;;;;;;3.70;3.40;;;;;;;;;;4998148;28;20197;-79
2021/09/18 01:02:11;;;;;;;4.03;3.72;;;;;;;;;;5002779;28;20265;-79
2021/09/18 01:04:38;;;;;;;4.00;3.55;;;;;;;;;;5000846;28;20189;-79
2021/09/18 01:07:04;;;;;;;4.20;3.78;;;;;;;;;;5016482;28;20187;-79
2021/09/18 01:09:31;;;;;;;3.90;3.55;;;;;;;;;;5002150;28;20198;-79
2021/09/18 01:11:57;;;;;;;4.20;3.80;;;;;;;;;;5001229;28;20170;-79
2021/09/18 01:14:23;;;;;;;3.95;3.65;;;;;;;;;;4999268;28;20226;-79
2021/09/18 01:16:49;;;;;;;3.70;3.40;;;;;;;;;;4995647;28;20182;-79
2021/09/18 01:19:15;;;;;;;4.18;3.85;;;;;;;;;;5000067;28;20194;-79
2021/09/18 01:21:41;;;;;;;4.28;3.70;;;;;;;;;;5016441;28;20214;-80
2021/09/18 01:24:07;;;;;;;4.82;4.35;;;;;;;;;;4999253;28;20233;-80
2021/09/18 01:26:34;;;;;;;5.38;4.60;;;;;;;;;;5000252;28;20182;-80
2021/09/18 01:29:01;;;;;;;4.55;4.15;;;;;;;;;;4993537;28;20218;-79
2021/09/18 01:31:27;;;;;;;4.68;4.18;;;;;;;;;;5000730;28;20189;-79
2021/09/18 01:33:54;;;;;;;4.55;3.92;;;;;;;;;;5002309;28;20193;-79
2021/09/18 01:36:20;;;;;;;5.25;4.38;;;;;;;;;;5000616;28;20182;-79
2021/09/18 01:38:49;;;;;;;6.82;4.65;;;;;;;;;;5002584;28;20201;-79
2021/09/18 01:41:15;;;;;;;6.25;4.80;;;;;;;;;;4993997;28;20210;-79
2021/09/18 01:43:42;;;;;;;4.97;4.55;;;;;;;;;;4996482;28;20221;-80
2021/09/18 01:46:08;;;;;;;5.72;5.22;;;;;;;;;;4998900;28;20190;-79
2021/09/18 01:48:34;;;;;;;5.82;4.60;;;;;;;;;;5017413;28;20178;-79
2021/09/18 01:51:02;;;;;;;5.30;4.82;;;;;;;;;;5002902;28;20181;-79
2021/09/18 01:53:31;;;;;;;6.15;4.38;;;;;;;;;;4992075;28;20218;-80
2021/09/18 01:55:58;;;;;;;6.57;5.88;;;;;;;;;;4993496;28;20186;-80
2021/09/18 01:58:24;;;;;;;5.63;5.03;;;;;;;;;;5000973;28;20236;-79
2021/09/18 02:00:52;;;;;;;5.70;5.15;;;;;;;;;;5002056;28;20195;-80
2021/09/18 02:03:18;;;;;;;7.13;5.65;;;;;;;;;;5003555;28;20182;-79
2021/09/18 02:05:44;;;;;;;5.88;5.13;;;;;;;;;;4996755;28;20241;-80
2021/09/18 02:08:10;;;;;;;7.10;5.75;;;;;;;;;;5000041;28;20199;-79
2021/09/18 02:10:36;;;;;;;7.13;6.37;;;;;;;;;;5015502;28;20183;-80
2021/09/18 02:13:04;;;;;;;7.35;6.15;;;;;;;;;;5002189;28;20441;-80
2021/09/18 02:15:30;;;;;;;5.45;4.95;;;;;;;;;;4997548;28;20190;-80
2021/09/18 02:17:56;;;;;;;6.32;5.25;;;;;;;;;;5001997;28;20185;-79
2021/09/18 02:20:24;;;;;;;7.13;5.95;;;;;;;;;;5001174;28;20556;-79
2021/09/18 02:22:50;;;;;;;7.10;5.50;;;;;;;;;;4997421;28;20208;-79
2021/09/18 02:25:16;;;;;;;6.70;6.00;;;;;;;;;;5011021;28;20189;-79
2021/09/18 02:27:42;;;;;;;7.80;7.20;;;;;;;;;;5016039;28;20521;-80
2021/09/18 02:30:10;;;;;;;7.07;6.03;;;;;;;;;;5003692;28;20574;-80
2021/09/18 02:32:36;;;;;;;8.05;6.60;;;;;;;;;;5000510;28;20534;-80
2021/09/18 02:35:07;;;;;;;8.82;7.03;;;;;;;;;;4999787;28;20201;-80
2021/09/18 02:37:33;;;;;;;9.65;7.18;;;;;;;;;;5001656;28;20197;-80
2021/09/18 02:39:59;;;;;;;8.38;7.10;;;;;;;;;;5000070;28;20182;-80
2021/09/18 02:42:25;;;;;;;8.48;7.00;;;;;;;;;;5017377;28;20592;-79
2021/09/18 02:44:51;;;;;;;7.82;6.65;;;;;;;;;;4997740;28;20219;-80
2021/09/18 02:47:17;;;;;;;7.97;7.15;;;;;;;;;;5000199;28;20204;-79
2021/09/18 02:49:43;;;;;;;8.30;7.50;;;;;;;;;;4999691;28;20198;-80
2021/09/18 02:52:09;;;;;;;8.43;7.60;;;;;;;;;;5001217;28;20183;-79
2021/09/18 02:54:35;;;;;;;9.68;8.38;;;;;;;;;;5002741;28;20452;-80
2021/09/18 02:57:01;;;;;;;10.37;8.17;;;;;;;;;;5007286;28;20210;-80
2021/09/18 02:59:27;;;;;;;9.23;7.67;;;;;;;;;;4996651;28;20496;-80
2021/09/18 03:01:53;;;;;;;9.30;7.33;;;;;;;;;;5003928;28;20472;-80
2021/09/18 03:04:19;;;;;;;8.70;7.80;;;;;;;;;;5002529;28;20448;-79
2021/09/18 03:06:45;;;;;;;10.50;8.52;;;;;;;;;;5002940;28;20181;-79
2021/09/18 03:09:11;;;;;;;10.73;6.67;;;;;;;;;;5021735;28;20617;-79
2021/09/18 03:11:37;;;;;;;8.57;7.13;;;;;;;;;;5005296;28;20440;-80
2021/09/18 03:14:03;;;;;;;9.82;7.70;;;;;;;;;;4997824;28;20446;-79
2021/09/18 03:16:29;;;;;;;7.88;7.07;;;;;;;;;;5000093;28;20246;-80
2021/09/18 03:18:55;;;;;;;10.10;8.00;;;;;;;;;;5002793;28;20191;-79
2021/09/18 03:21:21;;;;;;;8.68;7.05;;;;;;;;;;5019788;28;20233;-79
2021/09/18 03:23:47;;;;;;;11.13;8.50;;;;;;;;;;5004072;28;20175;-79
2021/09/18 03:26:13;;;;;;;12.05;9.00;;;;;;;;;;5000895;28;20441;-79
2021/09/18 03:28:39;;;;;;;9.80;8.80;;;;;;;;;;5002649;28;20186;-79
2021/09/18 03:31:05;;;;;;;9.13;7.85;;;;;;;;;;5017978;28;20433;-79
2021/09/18 03:33:31;;;;;;;10.57;7.93;;;;;;;;;;5019260;28;20179;-79
2021/09/18 03:35:57;;;;;;;9.50;8.05;;;;;;;;;;5005773;28;20178;-79
2021/09/18 03:38:23;;;;;;;10.18;8.68;;;;;;;;;;5003321;28;20194;-79
2021/09/18 03:40:49;;;;;;;8.90;8.00;;;;;;;;;;4998994;28;20245;-79
2021/09/18 03:43:15;;;;;;;11.15;8.35;;;;;;;;;;5015887;28;20430;-79
2021/09/18 03:45:41;;;;;;;10.10;7.90;;;;;;;;;;5002736;28;20603;-80
2021/09/18 03:48:07;;;;;;;8.97;8.07;;;;;;;;;;5005188;28;20414;-79
2021/09/18 03:50:33;;;;;;;10.15;8.63;;;;;;;;;;5000132;28;20773;-79
2021/09/18 03:52:59;;;;;;;11.07;8.52;;;;;;;;;;5014736;28;20255;-79
2021/09/18 03:55:25;;;;;;;9.40;8.40;;;;;;;;;;5002553;28;20190;-78
2021/09/18 03:57:51;;;;;;;10.18;8.57;;;;;;;;;;4996622;28;20490;-80
2021/09/18 04:00:17;;;;;;;9.45;8.23;;;;;;;;;;5020310;28;20678;-79
2021/09/18 04:02:43;;;;;;;11.05;8.75;;;;;;;;;;4998643;28;20632;-79
2021/09/18 04:05:09;;;;;;;11.37;9.23;;;;;;;;;;4994762;28;20254;-79
2021/09/18 04:07:35;;;;;;;13.43;8.85;;;;;;;;;;5002114;28;20469;-79
2021/09/18 04:10:01;;;;;;;8.77;7.93;;;;;;;;;;5017200;28;20182;-80
2021/09/18 04:12:27;;;;;;;11.93;8.07;;;;;;;;;;5003741;28;20210;-79
2021/09/18 04:14:53;;;;;;;9.18;8.13;;;;;;;;;;5004137;28;20911;-79
2021/09/18 04:17:19;;;;;;;10.40;8.13;;;;;;;;;;5011109;28;20194;-79
2021/09/18 04:19:45;;;;;;;10.17;7.83;;;;;;;;;;4992576;28;20439;-79
2021/09/18 04:22:11;;;;;;;10.10;8.33;;;;;;;;;;5003609;28;20466;-79
2021/09/18 04:24:37;;;;;;;12.18;9.63;;;;;;;;;;5017765;28;20449;-80
2021/09/18 04:27:04;;;;;;;10.60;7.88;;;;;;;;;;5005030;28;20175;-80
2021/09/18 04:29:31;;;;;;;9.88;8.48;;;;;;;;;;5001831;28;20191;-80
2021/09/18 04:31:57;;;;;;;10.55;8.65;;;;;;;;;;5000946;28;20615;-79
2021/09/18 04:34:23;;;;;;;9.20;8.23;;;;;;;;;;5001174;28;20198;-79
2021/09/18 04:36:49;;;;;;;8.85;7.95;;;;;;;;;;5001876;28;20186;-79
2021/09/18 04:39:17;;;;;;;8.95;8.05;;;;;;;;;;5020291;28;20194;-80
2021/09/18 04:41:43;;;;;;;9.52;8.63;;;;;;;;;;4999443;28;20206;-79
2021/09/18 04:44:10;;;;;;;7.22;6.50;;;;;;;;;;5002005;28;20230;-80
2021/09/18 04:46:36;;;;;;;9.05;7.93;;;;;;;;;;5001407;28;20179;-80
2021/09/18 04:49:02;;;;;;;9.38;8.10;;;;;;;;;;5017785;28;20266;-80
2021/09/18 04:51:28;;;;;;;9.25;8.30;;;;;;;;;;5003268;28;20225;-79
2021/09/18 04:53:54;;;;;;;10.15;8.45;;;;;;;;;;5003130;28;20208;-80
2021/09/18 04:56:20;;;;;;;8.83;7.53;;;;;;;;;;5001162;28;20194;-78
2021/09/18 04:58:46;;;;;;;9.25;7.40;;;;;;;;;;5000683;28;20803;-80
2021/09/18 05:01:12;;;;;;;9.20;8.23;;;;;;;;;;5000605;28;20207;-79
2021/09/18 05:03:38;;;;;;;7.43;6.50;;;;;;;;;;5001986;28;20266;-80
2021/09/18 05:06:04;;;;;;;12.03;7.50;;;;;;;;;;4994184;28;20430;-80
2021/09/18 05:08:29;;;;;;;9.83;7.57;;;;;;;;;;4999371;28;20457;-80
2021/09/18 05:10:56;;;;;;;8.53;7.63;;;;;;;;;;5000674;28;20447;-79
2021/09/18 05:13:22;;;;;;;7.57;6.78;;;;;;;;;;5000175;28;20805;-79
2021/09/18 05:15:48;;;;;;;8.63;7.72;;;;;;;;;;5000745;28;20174;-79
2021/09/18 05:18:14;;;;;;;10.20;7.20;;;;;;;;;;5004317;28;20690;-79
2021/09/18 05:20:40;;;;;;;7.32;6.40;;;;;;;;;;5000100;28;20794;-80
2021/09/18 05:23:06;;;;;;;8.57;7.68;;;;;;;;;;5000339;28;20202;-79
2021/09/18 05:25:32;;;;;;;9.73;8.18;;;;;;;;;;5001394;28;20244;-80
2021/09/18 05:27:58;;;;;;;8.60;7.57;;;;;;;;;;5017429;28;20213;-79
2021/09/18 05:30:24;;;;;;;8.35;7.22;;;;;;;;;;5017344;28;20426;-79
2021/09/18 05:32:50;;;;;;;7.15;6.45;;;;;;;;;;5001980;28;20177;-80
2021/09/18 05:35:15;;;;;;;9.80;7.00;;;;;;;;;;5001635;28;20230;-79
2021/09/18 05:37:41;;;;;;;12.10;8.30;;;;;;;;;;4997955;28;20522;-80
2021/09/18 05:40:08;;;;;;;7.95;7.15;;;;;;;;;;5014688;28;20454;-79
2021/09/18 05:42:34;;;;;;;7.68;6.88;;;;;;;;;;5016253;28;20207;-78
2021/09/18 05:45:00;;;;;;;7.72;6.93;;;;;;;;;;5002124;28;20254;-78
2021/09/18 05:47:26;;;;;;;7.00;6.30;;;;;;;;;;4992637;28;20190;-79
2021/09/18 05:49:52;;;;;;;8.02;7.22;;;;;;;;;;5001999;28;20252;-79
2021/09/18 05:52:18;;;;;;;8.30;7.30;;;;;;;;;;5015467;28;20191;-79
2021/09/18 05:54:44;;;;;;;8.80;6.77;;;;;;;;;;4995974;28;20559;-80
2021/09/18 05:57:10;;;;;;;7.37;5.97;;;;;;;;;;4997683;28;20438;-80
2021/09/18 05:59:36;;;;;;;7.70;7.00;;;;;;;;;;5000280;28;20456;-80
2021/09/18 06:02:02;;;;;;;7.20;6.43;;;;;;;;;;4999661;28;20199;-80
2021/09/18 06:04:28;;;;;;;7.97;7.25;;;;;;;;;;4999088;28;20914;-80
2021/09/18 06:06:54;;;;;;;9.57;6.90;;;;;;;;;;5011706;28;20190;-80
2021/09/18 06:09:20;;;;;;;7.40;6.70;;;;;;;;;;5002893;28;20469;-79
2021/09/18 06:11:46;;;;;;;8.00;6.30;;;;;;;;;;5000949;28;20449;-79
2021/09/18 06:14:12;;;;;;;8.43;7.20;;;;;;;;;;4996966;28;21005;-79
2021/09/18 06:16:38;;;;;;;6.97;6.30;;;;;;;;;;5014791;28;20452;-79
2021/09/18 06:19:04;;;;;;;7.50;6.80;;;;;;;;;;5000424;28;20441;-79
2021/09/18 06:21:30;;;;;;;5.97;5.40;;;;;;;;;;5017338;28;20465;-79
2021/09/18 06:23:56;;;;;;;8.37;7.67;;;;;;;;;;5001887;28;20181;-79
2021/09/18 06:26:22;;;;;;;7.28;6.57;;;;;;;;;;5000150;28;20524;-79
2021/09/18 06:28:49;;;;;;;8.63;7.18;;;;;;;;;;5000813;28;20179;-79
2021/09/18 06:31:15;;;;;;;7.72;7.03;;;;;;;;;;5018319;28;20191;-77
2021/09/18 06:33:41;;;;;;;6.88;6.25;;;;;;;;;;5005127;28;20239;-78
2021/09/18 06:36:07;;;;;;;7.90;7.10;;;;;;;;;;5021632;28;20187;-79
2021/09/18 06:38:33;;;;;;;13.20;6.95;;;;;;;;;;5004685;28;20455;-78
2021/09/18 06:40:59;;;;;;;8.48;7.57;;;;;;;;;;5004623;28;20188;-79
2021/09/18 06:43:25;;;;;;;7.68;6.03;;;;;;;;;;5002555;28;20179;-79
2021/09/18 06:45:51;;;;;;;10.52;7.50;;;;;;;;;;5018460;28;20179;-79
2021/09/18 06:48:17;;;;;;;8.27;7.57;;;;;;;;;;5020889;28;20183;-78
2021/09/18 06:50:44;;;;;;;7.32;6.65;;;;;;;;;;5005035;28;20185;-79
2021/09/18 06:53:10;;;;;;;8.52;6.97;;;;;;;;;;5003823;28;20226;-79
2021/09/18 06:55:37;;;;;;;8.18;6.85;;;;;;;;;;5002972;28;20214;-79
2021/09/18 06:58:03;;;;;;;8.02;7.15;;;;;;;;;;5001136;28;20195;-79
2021/09/18 07:00:29;;;;;;;10.20;7.60;;;;;;;;;;5003996;28;20184;-79
2021/09/18 07:02:56;;;;;;;8.13;6.70;;;;;;;;;;5003576;28;20266;-78
2021/09/18 07:05:22;;;;;;;6.90;6.22;;;;;;;;;;5003868;28;20222;-80
2021/09/18 07:07:48;;;;;;;7.75;6.95;;;;;;;;;;5002976;28;20196;-79
2021/09/18 07:10:14;;;;;;;7.30;6.60;;;;;;;;;;5003766;28;20195;-80
2021/09/18 07:12:40;;;;;;;11.43;7.20;;;;;;;;;;5003708;28;20191;-79
2021/09/18 07:15:07;;;;;;;11.70;7.80;;;;;;;;;;5006008;28;20182;-79
2021/09/18 07:17:33;;;;;;;9.27;8.18;;;;;;;;;;5002567;28;20198;-79
2021/09/18 07:19:59;;;;;;;8.25;7.43;;;;;;;;;;5003720;28;20196;-78
2021/09/18 07:22:26;;;;;;;9.32;8.27;;;;;;;;;;5002688;28;20206;-79
2021/09/18 07:24:52;;;;;;;9.23;7.78;;;;;;;;;;5002231;28;20203;-79
2021/09/18 07:27:18;;;;;;;9.35;7.68;;;;;;;;;;5020685;28;20222;-79
2021/09/18 07:29:45;;;;;;;8.75;7.47;;;;;;;;;;5001513;28;20190;-79
2021/09/18 07:32:11;;;;;;;10.82;9.05;;;;;;;;;;5004025;28;20195;-79
2021/09/18 07:34:37;;;;;;;11.85;8.25;;;;;;;;;;5018979;28;20190;-80
2021/09/18 07:37:04;;;;;;;8.02;7.22;;;;;;;;;;5017465;28;20184;-80
2021/09/18 07:39:31;;;;;;;9.25;8.13;;;;;;;;;;5004081;28;20211;-80
2021/09/18 07:41:57;;;;;;;9.18;8.27;;;;;;;;;;4998512;28;20213;-80
2021/09/18 07:44:23;;;;;;;10.23;9.33;;;;;;;;;;5002350;28;20247;-80
2021/09/18 07:46:49;;;;;;;9.88;8.70;;;;;;;;;;5003541;28;20445;-80
2021/09/18 07:49:16;;;;;;;8.63;7.80;;;;;;;;;;5004090;28;20187;-80
2021/09/18 07:51:42;;;;;;;9.52;8.55;;;;;;;;;;5002116;28;20188;-79
2021/09/18 07:54:08;;;;;;;8.90;8.02;;;;;;;;;;5001507;28;20186;-80
2021/09/18 07:56:34;;;;;;;16.58;9.55;;;;;;;;;;5000776;28;20214;-80
2021/09/18 07:59:01;;;;;;;10.27;9.25;;;;;;;;;;5002103;28;20187;-81
2021/09/18 08:01:30;;;;;;;8.98;8.13;;;;;;;;;;5002237;28;20214;-80
2021/09/18 08:03:59;;;;;;;9.02;7.70;;;;;;;;;;5000790;28;20171;-79
2021/09/18 08:06:26;;;;;;;10.55;9.45;;;;;;;;;;5003776;28;20175;-80
2021/09/18 08:08:52;;;;;;;11.93;8.65;;;;;;;;;;4998607;28;20552;-80
2021/09/18 08:11:19;;;;;;;10.20;9.10;;;;;;;;;;5000287;28;20236;-80
2021/09/18 08:13:46;;;;;;;9.80;8.77;;;;;;;;;;4999932;28;20175;-82
2021/09/18 08:16:12;;;;;;;9.18;8.20;;;;;;;;;;5003053;28;20190;-81
2021/09/18 08:18:38;;;;;;;9.63;8.63;;;;;;;;;;5001283;28;20191;-82
2021/09/18 08:21:04;;;;;;;8.90;7.70;;;;;;;;;;5003877;28;20179;-80
2021/09/18 08:23:30;;;;;;;8.52;7.63;;;;;;;;;;5000090;28;20434;-80
2021/09/18 08:25:56;;;;;;;12.73;8.25;;;;;;;;;;4995772;28;20201;-81
2021/09/18 08:28:22;;;;;;;8.52;7.05;;;;;;;;;;4999723;28;20274;-80
2021/09/18 08:30:48;;;;;;;10.70;8.23;;;;;;;;;;5016322;28;20175;-81
2021/09/18 08:33:14;;;;;;;8.87;8.00;;;;;;;;;;5015297;28;20975;-81
2021/09/18 08:35:40;;;;;;;7.38;6.68;;;;;;;;;;5015155;28;20473;-80
2021/09/18 08:38:06;;;;;;;7.47;6.70;;;;;;;;;;5002150;28;20210;-80
2021/09/18 08:40:37;;;;;;;8.90;8.00;;;;;;;;;;4994145;28;20463;-81
2021/09/18 08:43:03;;;;;;;9.02;8.10;;;;;;;;;;5017070;28;20467;-81
2021/09/18 08:45:29;;;;;;;9.20;6.70;;;;;;;;;;5003258;28;20280;-79
2021/09/18 08:47:56;;;;;;;8.40;7.60;;;;;;;;;;5002958;28;20262;-82
2021/09/18 08:50:23;;;;;;;7.85;7.05;;;;;;;;;;4995223;28;20193;-81
2021/09/18 08:52:49;;;;;;;7.55;6.50;;;;;;;;;;5014175;28;20188;-82
2021/09/18 08:55:16;;;;;;;6.95;5.80;;;;;;;;;;5000222;28;20186;-81
2021/09/18 08:57:43;;;;;;;7.30;6.55;;;;;;;;;;4996446;28;20316;-81
2021/09/18 09:00:15;;;;;;;8.13;6.03;;;;;;;;;;4999790;28;20189;-80
2021/09/18 09:02:52;;;;;;;9.00;6.72;;;;;;;;;;5000593;28;20210;-81
2021/09/18 09:05:18;;;;;;;7.30;5.40;;;;;;;;;;5000541;28;20873;-82
2021/09/18 09:08:04;;;;;;;6.20;4.70;;;;;;;;;;5000470;28;20439;-81
2021/09/18 09:10:30;;;;;;;6.00;5.50;;;;;;;;;;4989811;28;20470;-80
2021/09/18 09:13:03;;;;;;;5.60;4.97;;;;;;;;;;4999649;28;20301;-81
2021/09/18 09:15:29;;;;;;;5.22;4.05;;;;;;;;;;5002549;28;20250;-81
2021/09/18 09:17:57;;;;;;;4.63;4.13;;;;;;;;;;5002127;28;20174;-83
2021/09/18 09:20:24;;;;;;;4.20;3.80;;;;;;;;;;4995788;28;20540;-80
2021/09/18 09:22:50;;;;;;;5.75;3.80;;;;;;;;;;4999605;28;20405;-83
2021/09/18 09:25:27;;;;;;;4.88;3.80;;;;;;;;;;5002599;28;20182;-81
2021/09/18 09:27:53;;;;;;;3.88;3.50;;;;;;;;;;5000540;28;20178;-81
2021/09/18 09:30:26;;;;;;;4.25;3.50;;;;;;;;;;5003723;28;20188;-80
2021/09/18 09:32:52;;;;;;;4.20;3.80;;;;;;;;;;5003354;28;20213;-81
2021/09/18 09:35:19;;;;;;;6.00;4.27;;;;;;;;;;4998625;28;20196;-81
2021/09/18 09:37:52;;;;;;;4.70;4.18;;;;;;;;;;5015221;28;20423;-82
2021/09/18 09:40:29;;;;;;;3.28;3.08;;;;;;;;;;5016019;28;20216;-81
2021/09/18 09:42:56;;;;;;;3.80;3.45;;;;;;;;;;4999713;28;20282;-80
2021/09/18 09:45:22;;;;;;;3.40;3.17;;;;;;;;;;5018022;28;20221;-81
2021/09/18 09:48:02;;;;;;;3.30;3.10;;;;;;;;;;4999072;28;20177;-80
2021/09/18 09:50:28;;;;;;;3.47;3.17;;;;;;;;;;4992869;28;20189;-81
2021/09/18 09:52:56;;;;;;;3.25;2.95;;;;;;;;;;5001449;28;20198;-82
2021/09/18 09:55:22;;;;;;;4.27;3.13;;;;;;;;;;5015098;28;20254;-80
2021/09/18 09:58:02;;;;;;;3.73;3.40;;;;;;;;;;4995733;28;20496;-81
2021/09/18 10:00:39;;;;;;;4.15;3.53;;;;;;;;;;5002936;28;20432;-80
2021/09/18 10:03:05;;;;;;;3.20;3.00;;;;;;;;;;5002653;28;20201;-81
2021/09/18 10:05:31;;;;;;;3.70;3.40;;;;;;;;;;5003391;28;20216;-81
2021/09/18 10:07:59;;;;;;;3.30;3.00;;;;;;;;;;5019564;28;20828;-80
2021/09/18 10:10:25;;;;;;;4.63;3.38;;;;;;;;;;5003356;28;20477;-80
2021/09/18 10:12:51;;;;;;;3.45;3.22;;;;;;;;;;5003503;28;20191;-80
2021/09/18 10:15:18;;;;;;;3.70;3.40;;;;;;;;;;5007652;28;20179;-79
2021/09/18 10:17:46;;;;;;;3.20;2.90;;;;;;;;;;5004838;28;20253;-80
2021/09/18 10:20:14;;;;;;;3.08;2.88;;;;;;;;;;5003038;28;20214;-81
2021/09/18 10:25:33;;;;;;;3.90;3.60;;;;;;;;;;5004360;28;20202;-81
2021/09/18 10:28:10;;;;;;;3.90;3.50;;;;;;;;;;5016256;28;20441;-82
2021/09/18 10:30:38;;;;;;;4.50;4.10;;;;;;;;;;5019914;28;20426;-81
2021/09/18 10:33:05;;;;;;;3.47;3.17;;;;;;;;;;5003384;28;20329;-82
2021/09/18 10:35:32;;;;;;;6.07;3.30;;;;;;;;;;5019283;28;20446;-82
2021/09/18 10:37:58;;;;;;;5.03;3.60;;;;;;;;;;5005539;28;20437;-82
2021/09/18 10:40:24;;;;;;;5.90;4.10;;;;;;;;;;5016456;28;20460;-82
2021/09/18 10:42:51;;;;;;;4.90;3.40;;;;;;;;;;5019704;28;20437;-79
2021/09/18 10:45:18;;;;;;;3.10;2.80;;;;;;;;;;5007357;28;20444;-81
2021/09/18 10:47:47;;;;;;;4.13;3.80;;;;;;;;;;4995557;28;20447;-82
2021/09/18 10:50:22;;;;;;;3.50;3.20;;;;;;;;;;5004641;28;20446;-82
2021/09/18 10:53:07;;;;;;;3.80;3.27;;;;;;;;;;5003128;28;20484;-82
2021/09/18 10:55:53;;;;;;;3.73;3.20;;;;;;;;;;5005368;28;20945;-81
2021/09/18 10:58:19;;;;;;;4.10;3.50;;;;;;;;;;5020491;28;20443;-82
2021/09/18 11:00:50;;;;;;;4.70;2.97;;;;;;;;;;5004263;28;20424;-82
2021/09/18 11:03:32;;;;;;;3.70;3.40;;;;;;;;;;5006658;28;20465;-82
2021/09/18 11:05:58;;;;;;;2.90;2.70;;;;;;;;;;5004843;28;20397;-82
2021/09/18 11:08:25;;;;;;;4.37;3.57;;;;;;;;;;5003229;28;20404;-82
2021/09/18 11:10:59;;;;;;;3.63;3.33;;;;;;;;;;5003213;28;20440;-83
2021/09/18 11:13:26;;;;;;;3.40;3.20;;;;;;;;;;4991769;28;20408;-82
2021/09/18 11:15:56;;;;;;;3.93;3.50;;;;;;;;;;5018031;28;21168;-81
2021/09/18 11:18:41;;;;;;;3.97;3.67;;;;;;;;;;5005333;28;20426;-80
2021/09/18 11:21:07;;;;;;;3.90;3.57;;;;;;;;;;5004582;28;20393;-80
2021/09/18 11:23:39;;;;;;;5.57;3.90;;;;;;;;;;4997162;28;20412;-83
2021/09/18 11:26:25;;;;;;;4.03;3.70;;;;;;;;;;5018082;28;20408;-85
2021/09/18 11:28:53;;;;;;;4.40;4.10;;;;;;;;;;4989687;28;20469;-82
2021/09/18 11:31:19;;;;;;;4.20;3.90;;;;;;;;;;5003857;28;20433;-82
2021/09/18 11:33:48;;;;;;;3.70;3.40;;;;;;;;;;5017956;28;20468;-83
2021/09/18 11:36:15;;;;;;;3.50;3.20;;;;;;;;;;5003945;28;20405;-82
2021/09/18 11:38:40;;;;;;;4.27;3.60;;;;;;;;;;5017941;28;20412;-81
2021/09/18 11:41:08;;;;;;;5.40;3.57;;;;;;;;;;5002842;28;20423;-81
2021/09/18 11:43:34;;;;;;;5.27;3.43;;;;;;;;;;5001964;28;20476;-82
2021/09/18 11:46:00;;;;;;;3.27;3.07;;;;;;;;;;5003199;28;20448;-80
2021/09/18 11:48:29;;;;;;;4.23;3.20;;;;;;;;;;5018683;28;20445;-82
2021/09/18 11:50:55;;;;;;;3.10;2.80;;;;;;;;;;4999178;28;20676;-80
2021/09/18 11:53:21;;;;;;;3.10;2.60;;;;;;;;;;5003374;28;20590;-81
2021/09/18 11:55:48;;;;;;;3.10;2.90;;;;;;;;;;5003827;28;20428;-83
2021/09/18 11:58:14;;;;;;;3.33;2.93;;;;;;;;;;5002943;28;20440;-79
2021/09/18 12:00:45;;;;;;;2.90;2.60;;;;;;;;;;5001969;28;20520;-79
2021/09/18 12:03:11;;;;;;;3.53;3.23;;;;;;;;;;5004536;28;20468;-76
2021/09/18 12:05:37;;;;;;;2.73;2.53;;;;;;;;;;5002012;28;20443;-79
2021/09/18 12:08:08;;;;;;;3.57;3.00;;;;;;;;;;5002139;28;21000;-78
2021/09/18 12:10:34;;;;;;;3.00;2.80;;;;;;;;;;5001957;28;20510;-79
2021/09/18 12:13:01;;;;;;;3.23;2.83;;;;;;;;;;5001459;28;20442;-82
2021/09/18 12:15:32;;;;;;;2.97;2.67;;;;;;;;;;5017956;28;20429;-79
2021/09/18 12:17:58;;;;;;;3.00;2.40;;;;;;;;;;5003563;28;20421;-79
2021/09/18 12:20:24;;;;;;;3.47;3.17;;;;;;;;;;4994532;28;20454;-81
2021/09/18 12:22:50;;;;;;;2.83;2.63;;;;;;;;;;4996478;28;20463;-79
2021/09/18 12:25:16;;;;;;;3.50;2.40;;;;;;;;;;5015930;28;20438;-79
2021/09/18 12:27:42;;;;;;;2.27;2.17;;;;;;;;;;4998246;28;20800;-80
2021/09/18 12:30:09;;;;;;;2.47;2.37;;;;;;;;;;5004494;28;20456;-82
2021/09/18 12:32:36;;;;;;;2.50;2.30;;;;;;;;;;4995060;28;20462;-82
2021/09/18 12:35:05;;;;;;;2.93;2.73;;;;;;;;;;5000791;28;20816;-81
2021/09/18 12:37:32;;;;;;;3.40;2.97;;;;;;;;;;5001653;28;20525;-81
2021/09/18 12:40:31;;;;;;;4.50;2.73;;;;;;;;;;5016442;28;20450;-81
2021/09/18 12:43:16;;;;;;;3.33;3.13;;;;;;;;;;4939952;29;20459;-80
2021/09/18 12:45:43;;;;;;;2.60;2.40;;;;;;;;;;4935624;29;20450;-79
2021/09/18 12:48:19;;;;;;;2.70;2.50;;;;;;;;;;4943453;29;20425;-81
2021/09/18 12:50:48;;;;;;;2.30;2.10;;;;;;;;;;4941903;29;20460;-80
2021/09/18 12:53:17;;;;;;;2.60;2.40;;;;;;;;;;4926083;29;20443;-82
2021/09/18 12:56:02;;;;;;;3.40;2.63;;;;;;;;;;4923314;29;20473;-83
2021/09/18 12:58:28;;;;;;;2.40;2.30;;;;;;;;;;4924341;29;20444;-82
2021/09/18 13:00:58;;;;;;;2.40;2.20;;;;;;;;;;4941729;29;20464;-81
2021/09/18 13:03:24;;;;;;;2.70;2.50;;;;;;;;;;4924786;29;20476;-80
2021/09/18 13:06:00;;;;;;;5.03;2.63;;;;;;;;;;4925490;29;20440;-81
2021/09/18 13:08:26;;;;;;;3.53;2.50;;;;;;;;;;4941180;29;20445;-81
2021/09/18 13:10:52;;;;;;;2.17;2.00;;;;;;;;;;4925812;29;20872;-81
2021/09/18 13:13:36;;;;;;;2.83;2.33;;;;;;;;;;4948845;29;20445;-82
2021/09/18 13:16:02;;;;;;;2.50;2.30;;;;;;;;;;4925061;29;20520;-80
2021/09/18 13:18:28;;;;;;;2.40;2.30;;;;;;;;;;4960430;28;20423;-81
2021/09/18 13:20:54;;;;;;;3.60;2.80;;;;;;;;;;5001021;28;20410;-81
2021/09/18 13:23:20;;;;;;;2.37;2.17;;;;;;;;;;4993724;28;20477;-82
2021/09/18 13:25:47;;;;;;;2.60;2.37;;;;;;;;;;4995836;28;20852;-82
2021/09/18 13:28:14;;;;;;;2.87;2.67;;;;;;;;;;4999543;28;20434;-82
2021/09/18 13:30:40;;;;;;;2.40;2.30;;;;;;;;;;5016638;28;20434;-84
2021/09/18 13:33:06;;;;;;;2.23;2.03;;;;;;;;;;4993684;28;20528;-81
2021/09/18 13:35:32;;;;;;;2.10;1.90;;;;;;;;;;4997209;28;20513;-82
2021/09/18 13:37:58;;;;;;;2.23;2.10;;;;;;;;;;4999949;28;20468;-81
2021/09/18 13:40:23;;;;;;;2.27;2.17;;;;;;;;;;5000203;28;20641;-80
2021/09/18 13:42:49;;;;;;;2.43;2.33;;;;;;;;;;5015312;28;20472;-81
2021/09/18 13:45:16;;;;;;;2.50;2.20;;;;;;;;;;5003969;28;20477;-81
2021/09/18 13:47:41;;;;;;;3.07;2.10;;;;;;;;;;4993343;28;20446;-81
2021/09/18 13:50:08;;;;;;;5.40;3.80;;;;;;;;;;4994769;28;20451;-80
2021/09/18 13:52:35;;;;;;;3.10;2.90;;;;;;;;;;5000487;28;20441;-81
2021/09/18 13:55:01;;;;;;;3.50;3.20;;;;;;;;;;4999989;28;20459;-81
2021/09/18 13:57:27;;;;;;;2.10;1.90;;;;;;;;;;5002582;28;20442;-82
2021/09/18 13:59:53;;;;;;;2.43;2.23;;;;;;;;;;5002981;28;20523;-79
2021/09/18 14:02:19;;;;;;;2.17;1.97;;;;;;;;;;5000717;28;20556;-82
2021/09/18 14:04:45;;;;;;;2.70;2.60;;;;;;;;;;4996998;28;20506;-80
2021/09/18 14:07:11;;;;;;;2.53;2.33;;;;;;;;;;4999832;28;20473;-80
2021/09/18 14:09:37;;;;;;;2.60;2.40;;;;;;;;;;5002061;28;20435;-78
2021/09/18 14:12:04;;;;;;;2.07;1.77;;;;;;;;;;5018593;28;20430;-78
2021/09/18 14:14:30;;;;;;;2.47;2.33;;;;;;;;;;4997872;28;20452;-80
2021/09/18 14:16:57;;;;;;;4.10;2.20;;;;;;;;;;5000397;28;20445;-80
2021/09/18 14:19:23;;;;;;;2.10;2.00;;;;;;;;;;5000741;28;20477;-80
2021/09/18 14:21:49;;;;;;;3.10;2.43;;;;;;;;;;5016022;28;20471;-80
2021/09/18 14:24:15;;;;;;;1.83;1.73;;;;;;;;;;5019057;28;20463;-80
2021/09/18 14:26:41;;;;;;;2.30;2.10;;;;;;;;;;5000566;28;20907;-81
2021/09/18 14:29:09;;;;;;;2.40;2.20;;;;;;;;;;5000161;28;20433;-81
2021/09/18 14:31:36;;;;;;;2.60;2.40;;;;;;;;;;5002251;28;20446;-79
2021/09/18 14:34:02;;;;;;;3.17;2.60;;;;;;;;;;5000687;28;20441;-79
2021/09/18 14:36:28;;;;;;;2.13;2.03;;;;;;;;;;5011972;28;20437;-79
2021/09/18 14:38:55;;;;;;;2.57;2.37;;;;;;;;;;5016447;28;20427;-80
2021/09/18 14:41:21;;;;;;;2.63;2.53;;;;;;;;;;4998134;28;20445;-80
2021/09/18 14:43:47;;;;;;;2.80;2.60;;;;;;;;;;5001432;28;20562;-79